Time;durP1;ratioP1;P1;durP2;ratioP2;P2;SDS_P1;SDS_P2;PMS_P1;PMS_P2;Temp;Humidity;BMP_temperature;BMP_pressure;BME280_temperature;BME280_humidity;BME280_pressure;Samples;Min_cycle;Max_cycle;Signal;HPM_P1;HPM_P2
2023/10/14 00:00:47;;;;;;;4.40;2.10;;;;;;;15.96;100.00;100065.69;5095289;28;20024;-64
2023/10/14 00:03:32;;;;;;;4.10;1.90;;;;;;;15.93;100.00;100056.88;5094127;28;20521;-66
2023/10/14 00:06:00;;;;;;;4.45;1.70;;;;;;;15.90;100.00;100056.97;5095713;28;20028;-66
2023/10/14 00:08:28;;;;;;;3.55;1.80;;;;;;;15.86;100.00;100079.28;5095383;28;20027;-65
2023/10/14 00:10:54;;;;;;;2.75;1.52;;;;;;;15.79;100.00;100083.84;5095265;28;20039;-65
2023/10/14 00:13:19;;;;;;;2.85;1.48;;;;;;;15.75;100.00;100133.66;5095475;28;20039;-64
2023/10/14 00:15:45;;;;;;;4.35;1.42;;;;;;;15.75;100.00;100095.47;5095245;28;20024;-65
2023/10/14 00:18:13;;;;;;;1.63;1.45;;;;;;;15.70;100.00;100084.94;5095096;28;20036;-66
2023/10/14 00:20:39;;;;;;;5.30;1.52;;;;;;;15.70;100.00;100087.59;5094953;28;20036;-64
2023/10/14 00:23:04;;;;;;;1.88;1.40;;;;;;;15.67;100.00;100082.38;5093573;28;20036;-64
2023/10/14 00:25:33;;;;;;;2.25;1.33;;;;;;;15.69;100.00;100090.31;5094782;28;20035;-64
2023/10/14 00:28:02;;;;;;;2.83;1.48;;;;;;;15.73;100.00;100102.66;5094691;28;20416;-63
2023/10/14 00:30:31;;;;;;;2.85;1.45;;;;;;;15.71;100.00;100104.44;5094830;28;20032;-65
2023/10/14 00:32:57;;;;;;;4.00;1.50;;;;;;;15.75;100.00;100087.50;5094738;28;20039;-65
2023/10/14 00:35:24;;;;;;;2.15;1.10;;;;;;;15.73;100.00;100098.19;5094782;28;20028;-64
2023/10/14 00:37:52;;;;;;;2.75;1.42;;;;;;;15.73;100.00;100100.84;5093260;28;20051;-65
2023/10/14 00:40:22;;;;;;;3.05;1.38;;;;;;;15.77;100.00;100129.19;5094782;28;20020;-64
2023/10/14 00:42:50;;;;;;;3.42;1.30;;;;;;;15.77;100.00;100134.50;5094911;28;20124;-64
2023/10/14 00:45:20;;;;;;;4.05;1.23;;;;;;;15.69;100.00;100155.09;5094721;28;20043;-64
2023/10/14 00:47:47;;;;;;;4.22;1.20;;;;;;;15.70;100.00;100150.66;5094596;28;20028;-64
2023/10/14 00:52:57;;;;;;;3.50;1.17;;;;;;;15.72;100.00;100162.16;5094784;28;20090;-65
2023/10/14 00:56:11;;;;;;;1.80;1.20;;;;;;;15.61;100.00;100146.34;5094611;28;20042;-64
2023/10/14 00:58:21;;;;;;;3.50;1.30;;;;;;;15.69;100.00;100171.09;5085487;28;20040;-64
2023/10/14 01:00:59;;;;;;;3.63;1.50;;;;;;;15.66;100.00;100163.16;5094185;28;20478;-64
2023/10/14 01:03:36;;;;;;;4.82;1.40;;;;;;;15.63;100.00;100157.88;5094147;28;20086;-65
2023/10/14 01:08:49;;;;;;;2.65;1.58;;;;;;;15.52;100.00;100174.06;5094293;28;20047;-64
2023/10/14 01:11:17;;;;;;;3.13;1.70;;;;;;;15.50;100.00;100175.88;5093832;28;20028;-64
2023/10/14 01:13:44;;;;;;;2.83;1.60;;;;;;;15.39;100.00;100179.66;5092483;28;20028;-64
2023/10/14 01:16:10;;;;;;;4.07;1.45;;;;;;;15.24;100.00;100200.31;5093770;28;20024;-63
2023/10/14 01:18:38;;;;;;;1.90;1.40;;;;;;;15.08;100.00;100204.22;5093979;28;20454;-64
2023/10/14 01:21:04;;;;;;;3.67;1.33;;;;;;;14.87;100.00;100212.56;5093773;28;20028;-64
2023/10/14 01:23:29;;;;;;;4.38;1.73;;;;;;;14.80;100.00;100208.25;5093815;28;20111;-65
2023/10/14 01:25:57;;;;;;;6.13;1.80;;;;;;;14.72;100.00;100211.00;5093619;28;20526;-64
2023/10/14 01:28:29;;;;;;;7.97;1.90;;;;;;;14.65;100.00;100223.56;5093702;28;20090;-64
2023/10/14 01:31:34;;;;;;;7.78;1.80;;;;;;;14.66;100.00;100237.72;5093086;28;20036;-64
2023/10/14 01:34:05;;;;;;;6.85;2.00;;;;;;;14.70;100.00;100250.94;5093656;28;20161;-64
2023/10/14 01:36:37;;;;;;;6.03;1.90;;;;;;;14.73;100.00;100264.19;5093834;28;20032;-63
2023/10/14 01:39:09;;;;;;;8.32;1.80;;;;;;;14.75;100.00;100264.16;5093758;28;20066;-63
2023/10/14 01:41:35;;;;;;;9.10;2.10;;;;;;;14.77;100.00;100267.66;5093718;28;20040;-65
2023/10/14 01:44:05;;;;;;;4.95;1.90;;;;;;;14.76;100.00;100269.44;5093435;28;20504;-65
2023/10/14 01:46:30;;;;;;;8.70;2.00;;;;;;;14.73;100.00;100282.81;5093403;28;20476;-63
2023/10/14 01:49:01;;;;;;;6.53;1.80;;;;;;;14.74;100.00;100283.69;5093351;28;20133;-64
2023/10/14 01:51:26;;;;;;;9.95;2.40;;;;;;;14.72;100.00;100291.69;5093286;28;20561;-65
2023/10/14 01:53:52;;;;;;;6.85;2.03;;;;;;;14.69;100.00;100298.84;5093536;28;20111;-65
2023/10/14 01:56:17;;;;;;;6.40;2.00;;;;;;;14.68;100.00;100316.56;5092901;28;20355;-64
2023/10/14 01:58:45;;;;;;;9.82;2.20;;;;;;;14.65;100.00;100321.06;5093137;28;20059;-64
2023/10/14 02:03:54;;;;;;;9.65;2.17;;;;;;;14.51;100.00;100340.72;5093236;28;20036;-64
2023/10/14 02:06:25;;;;;;;8.13;2.22;;;;;;;14.47;100.00;100344.31;5093197;28;20036;-64
2023/10/14 02:08:51;;;;;;;13.23;2.30;;;;;;;14.43;100.00;100360.28;5093455;28;20032;-63
2023/10/14 02:11:32;;;;;;;8.57;2.10;;;;;;;14.46;100.00;100370.91;5093025;28;20035;-64
2023/10/14 02:13:58;;;;;;;8.18;2.28;;;;;;;14.44;100.00;100378.03;5092051;28;20039;-65
2023/10/14 02:16:25;;;;;;;11.18;2.30;;;;;;;14.47;100.00;100376.22;5092921;28;20028;-63
2023/10/14 02:19:17;;;;;;;10.43;2.60;;;;;;;14.44;100.00;100389.53;5074992;28;20035;-64
2023/10/14 02:21:42;;;;;;;11.30;2.40;;;;;;;14.46;100.00;100389.50;5092806;28;20105;-64
2023/10/14 02:24:10;;;;;;;10.07;2.40;;;;;;;14.47;100.00;100394.81;5093073;28;20055;-64
2023/10/14 02:26:38;;;;;;;11.95;2.50;;;;;;;14.51;100.00;100404.53;5092847;28;20094;-64
2023/10/14 02:29:07;;;;;;;8.93;2.45;;;;;;;14.50;100.00;100408.09;5092688;28;20044;-64
2023/10/14 02:31:35;;;;;;;10.23;2.38;;;;;;;14.50;100.00;100417.84;5092869;28;20462;-63
2023/10/14 02:34:06;;;;;;;7.78;2.20;;;;;;;14.51;100.00;100425.81;5092862;28;20032;-65
2023/10/14 02:36:40;;;;;;;9.48;2.20;;;;;;;14.50;100.00;100434.69;5092820;28;20028;-64
2023/10/14 02:39:14;;;;;;;7.93;2.15;;;;;;;14.46;100.00;100446.22;5093162;28;20035;-64
2023/10/14 02:41:43;;;;;;;10.70;2.42;;;;;;;14.47;100.00;100450.66;5092845;28;20107;-64
2023/10/14 02:46:45;;;;;;;10.50;2.33;;;;;;;14.49;100.00;100458.63;5097143;28;20477;-64
2023/10/14 02:49:15;;;;;;;11.70;2.30;;;;;;;14.47;100.00;100466.59;5096796;28;20085;-63
2023/10/14 02:51:44;;;;;;;9.55;2.35;;;;;;;14.42;100.00;100481.69;5095361;28;20474;-62
2023/10/14 02:54:26;;;;;;;8.70;2.40;;;;;;;14.38;100.00;100485.28;5097214;28;20039;-65
2023/10/14 02:56:58;;;;;;;12.13;2.23;;;;;;;14.38;100.00;100498.59;5096462;28;20101;-63
2023/10/14 03:04:55;;;;;;;13.07;2.40;;;;;;;14.16;100.00;100510.31;5096410;28;20435;-64
2023/10/14 03:07:34;;;;;;;12.07;2.72;;;;;;;14.16;100.00;100519.19;5095219;28;20032;-64
2023/10/14 03:10:12;;;;;;;10.63;2.75;;;;;;;14.08;99.52;100526.34;5096755;28;20126;-64
2023/10/14 03:12:42;;;;;;;12.05;2.50;;;;;;;14.06;98.63;100533.44;5096293;28;20105;-63
2023/10/14 03:15:21;;;;;;;9.73;2.40;;;;;;;13.99;96.13;100542.34;5096337;28;20059;-63
2023/10/14 03:17:58;;;;;;;11.23;2.60;;;;;;;13.96;95.59;100550.34;5096089;28;20020;-64
2023/10/14 03:22:58;;;;;;;9.57;2.50;;;;;;;13.74;93.23;100577.06;5096248;28;20032;-63
2023/10/14 03:25:24;;;;;;;13.35;2.80;;;;;;;13.68;93.74;100576.22;5096204;28;20051;-64
2023/10/14 03:27:50;;;;;;;9.63;2.72;;;;;;;13.60;92.91;100581.56;5095819;28;20101;-63
2023/10/14 03:30:17;;;;;;;11.63;2.85;;;;;;;13.57;93.56;100586.03;5096015;28;20024;-63
2023/10/14 03:32:43;;;;;;;11.15;2.50;;;;;;;13.56;93.94;100593.09;5096060;28;20032;-64
2023/10/14 03:35:13;;;;;;;9.30;2.65;;;;;;;13.59;94.53;100593.09;5095935;28;20038;-65
2023/10/14 03:37:52;;;;;;;16.05;2.60;;;;;;;13.51;92.42;100605.53;5095757;28;20458;-64
2023/10/14 03:43:10;;;;;;;15.93;3.03;;;;;;;13.39;92.16;100616.19;5096002;28;20035;-64
2023/10/14 03:45:48;;;;;;;15.25;2.58;;;;;;;13.37;92.18;100623.31;5095774;28;20469;-64
2023/10/14 03:48:13;;;;;;;14.18;2.70;;;;;;;13.35;91.13;100630.38;5095945;28;20044;-63
2023/10/14 03:50:40;;;;;;;12.02;2.72;;;;;;;13.23;90.42;100641.91;5095535;28;20103;-63
2023/10/14 03:53:08;;;;;;;11.05;2.70;;;;;;;13.16;92.28;100642.81;5095161;28;20024;-64
2023/10/14 03:55:34;;;;;;;9.88;2.33;;;;;;;13.16;91.58;100643.69;5094073;28;20028;-64
2023/10/14 03:58:03;;;;;;;11.85;2.42;;;;;;;13.11;91.68;100647.25;5095066;28;20062;-63
2023/10/14 04:00:39;;;;;;;9.15;2.30;;;;;;;13.14;92.54;100650.75;5095356;28;20024;-64
2023/10/14 04:03:12;;;;;;;11.77;3.00;;;;;;;13.15;91.68;100655.19;5094200;28;20130;-64
2023/10/14 04:05:53;;;;;;;12.75;2.83;;;;;;;13.13;93.19;100664.03;5095263;28;20563;-64
2023/10/14 04:08:30;;;;;;;11.07;2.40;;;;;;;13.11;91.94;100669.34;5095246;28;20043;-64
2023/10/14 04:11:35;;;;;;;14.65;2.78;;;;;;;13.08;92.89;100672.00;5095074;28;20496;-64
2023/10/14 04:13:58;;;;;;;10.27;2.70;;;;;;;13.03;91.69;100677.31;5092932;28;20036;-64
2023/10/14 04:16:28;;;;;;;10.63;2.50;;;;;;;13.00;92.00;100682.63;5094991;28;20496;-63
2023/10/14 04:18:59;;;;;;;11.65;2.35;;;;;;;12.95;92.14;100686.16;5095380;28;20060;-64
2023/10/14 04:21:35;;;;;;;12.73;2.72;;;;;;;12.94;92.92;100695.91;5095444;28;20036;-64
2023/10/14 04:24:29;;;;;;;13.23;2.45;;;;;;;12.90;91.71;100699.44;5095299;28;20070;-63
2023/10/14 04:26:49;;;;;;;12.35;2.80;;;;;;;12.84;91.66;100710.03;5094425;28;20040;-64
2023/10/14 04:29:39;;;;;;;11.77;2.50;;;;;;;12.75;91.64;100708.28;5095024;28;20040;-63
2023/10/14 04:32:17;;;;;;;10.05;2.50;;;;;;;12.77;93.39;100718.91;5094615;28;20123;-64
2023/10/14 04:34:49;;;;;;;9.18;2.35;;;;;;;12.78;94.16;100732.16;5094821;28;20393;-63
2023/10/14 04:37:20;;;;;;;9.73;2.42;;;;;;;12.78;94.26;100739.22;5094593;28;20077;-63
2023/10/14 04:39:45;;;;;;;7.18;2.13;;;;;;;12.69;92.34;100739.22;5094984;28;20111;-63
2023/10/14 04:42:22;;;;;;;11.68;2.42;;;;;;;12.66;93.62;100742.75;5094559;28;20431;-63
2023/10/14 04:44:59;;;;;;;12.30;2.85;;;;;;;12.58;92.91;100748.91;5095070;28;20058;-64
2023/10/14 04:47:37;;;;;;;9.65;2.47;;;;;;;12.49;92.59;100763.06;5094477;28;20063;-64
2023/10/14 04:50:10;;;;;;;9.77;2.53;;;;;;;12.44;93.71;100762.16;5094743;28;20111;-64
2023/10/14 04:52:44;;;;;;;13.63;2.63;;;;;;;12.36;94.28;100770.09;5094624;28;20024;-63
2023/10/14 04:58:12;;;;;;;11.75;2.60;;;;;;;12.34;95.33;100779.81;5093564;28;20055;-63
2023/10/14 05:00:42;;;;;;;10.20;2.35;;;;;;;12.28;94.50;100779.78;5094147;28;20114;-64
2023/10/14 05:03:14;;;;;;;12.32;2.70;;;;;;;12.26;94.87;100803.63;5094171;28;20020;-63
2023/10/14 05:05:49;;;;;;;16.35;2.80;;;;;;;12.16;94.74;100793.91;5093219;28;20024;-64
2023/10/14 05:08:21;;;;;;;9.82;2.50;;;;;;;12.17;95.63;100805.38;5094435;28;20024;-63
2023/10/14 05:10:50;;;;;;;10.55;2.63;;;;;;;12.15;96.20;100801.81;5092861;28;20113;-63
2023/10/14 05:13:19;;;;;;;12.20;2.90;;;;;;;12.11;95.87;100805.34;5094007;28;20161;-63
2023/10/14 05:15:53;;;;;;;10.27;2.58;;;;;;;12.09;96.00;100805.34;5093963;28;20032;-64
2023/10/14 05:18:27;;;;;;;14.50;2.78;;;;;;;12.10;96.11;100811.53;5093944;28;20473;-63
2023/10/14 05:23:24;;;;;;;12.07;2.50;;;;;;;12.08;95.43;100826.53;5093088;28;20050;-64
2023/10/14 05:25:56;;;;;;;11.00;2.53;;;;;;;12.08;96.87;100829.19;5092314;28;20054;-64
2023/10/14 05:28:26;;;;;;;9.10;2.50;;;;;;;12.08;96.67;100835.38;5093554;28;20470;-63
2023/10/14 05:30:55;;;;;;;16.67;3.22;;;;;;;12.01;95.46;100836.19;5092595;28;20032;-63
2023/10/14 05:33:21;;;;;;;12.18;2.63;;;;;;;12.01;96.34;100837.09;5094098;28;20424;-63
2023/10/14 05:35:48;;;;;;;12.40;2.90;;;;;;;11.94;95.24;100837.91;5093573;28;20019;-63
2023/10/14 05:38:15;;;;;;;11.10;2.60;;;;;;;11.91;96.17;100847.63;5093742;28;20040;-63
2023/10/14 05:40:41;;;;;;;10.40;3.00;;;;;;;11.92;95.99;100854.69;5093682;28;20039;-63
2023/10/14 05:43:07;;;;;;;13.13;2.60;;;;;;;11.88;96.59;100855.56;5093400;28;20032;-64
2023/10/14 05:45:36;;;;;;;11.43;2.70;;;;;;;11.82;95.81;100863.41;5093421;28;20024;-65
2023/10/14 05:48:03;;;;;;;11.38;2.80;;;;;;;11.81;96.03;100865.19;5093478;28;20097;-63
2023/10/14 05:50:30;;;;;;;9.20;2.22;;;;;;;11.81;96.42;100875.75;5093452;28;20032;-63
2023/10/14 05:52:55;;;;;;;13.18;2.60;;;;;;;11.85;97.21;100874.06;5093432;28;20024;-63
2023/10/14 05:55:21;;;;;;;8.52;2.20;;;;;;;11.91;97.35;100884.72;5093552;28;20081;-63
2023/10/14 05:57:47;;;;;;;13.63;2.63;;;;;;;11.87;95.84;100883.81;5092667;28;20067;-63
2023/10/14 06:00:22;;;;;;;14.75;2.65;;;;;;;11.88;96.29;100892.63;5093243;28;20081;-64
2023/10/14 06:02:51;;;;;;;10.65;2.65;;;;;;;11.91;96.01;100890.88;5092704;28;20043;-64
2023/10/14 06:05:24;;;;;;;10.15;2.42;;;;;;;11.85;95.39;100897.88;5092610;28;20378;-64
2023/10/14 06:07:59;;;;;;;18.17;2.63;;;;;;;11.82;95.46;100913.72;5092658;28;20036;-63
2023/10/14 06:10:29;;;;;;;13.48;2.50;;;;;;;11.78;95.73;100918.13;5092804;28;20042;-64
2023/10/14 06:12:56;;;;;;;12.23;2.53;;;;;;;11.77;97.10;100924.28;5092589;28;20024;-63
2023/10/14 06:15:22;;;;;;;10.50;2.58;;;;;;;11.80;96.08;100932.25;5092567;28;20020;-64
2023/10/14 06:17:49;;;;;;;9.73;2.60;;;;;;;11.79;96.68;100930.47;5092240;28;20470;-63
2023/10/14 06:20:16;;;;;;;11.63;2.85;;;;;;;11.81;96.16;100935.78;5092435;28;20129;-64
2023/10/14 06:22:43;;;;;;;13.65;2.90;;;;;;;11.81;97.64;100938.44;5092501;28;20028;-62
2023/10/14 06:25:15;;;;;;;14.63;2.72;;;;;;;11.79;96.45;100943.72;5092720;28;20039;-64
2023/10/14 06:27:45;;;;;;;9.10;2.78;;;;;;;11.79;96.38;100951.66;5092346;28;20032;-64
2023/10/14 06:30:19;;;;;;;14.40;2.50;;;;;;;11.87;98.32;100960.59;5092599;28;20024;-64
2023/10/14 06:32:48;;;;;;;11.57;2.80;;;;;;;11.88;96.78;100965.00;5092304;28;20032;-64
2023/10/14 06:35:15;;;;;;;14.70;2.80;;;;;;;11.94;95.81;100969.44;5091115;28;20028;-64
2023/10/14 06:37:43;;;;;;;14.07;2.65;;;;;;;11.96;96.10;100973.88;5090991;28;20030;-64
2023/10/14 06:40:12;;;;;;;9.95;2.60;;;;;;;11.99;96.25;100968.63;5092324;28;20501;-64
2023/10/14 06:42:43;;;;;;;10.75;3.15;;;;;;;12.02;95.48;100983.63;5092251;28;20089;-64
2023/10/14 06:45:17;;;;;;;11.02;2.47;;;;;;;12.03;95.05;100988.03;5092699;28;20040;-64
2023/10/14 06:47:50;;;;;;;13.20;2.72;;;;;;;12.08;95.20;100996.06;5092260;28;20061;-63
2023/10/14 06:50:20;;;;;;;11.35;2.33;;;;;;;12.03;94.25;100993.34;5092092;28;20032;-64
2023/10/14 06:52:47;;;;;;;11.32;2.85;;;;;;;12.00;93.60;100996.00;5091967;28;20466;-62
2023/10/14 06:55:12;;;;;;;11.35;2.60;;;;;;;12.00;94.33;101009.22;5091896;28;20024;-64
2023/10/14 06:57:38;;;;;;;10.93;2.40;;;;;;;11.99;93.91;101016.28;5091764;28;20052;-63
2023/10/14 07:00:11;;;;;;;12.30;3.00;;;;;;;11.99;93.65;101016.28;5091795;28;20458;-63
2023/10/14 07:02:37;;;;;;;6.88;2.28;;;;;;;12.01;93.71;101024.25;5092381;28;20047;-63
2023/10/14 07:05:03;;;;;;;13.35;2.70;;;;;;;12.02;93.22;101039.25;5092050;28;20036;-62
2023/10/14 07:07:29;;;;;;;12.95;2.83;;;;;;;12.08;93.28;101039.31;5092283;28;20028;-62
2023/10/14 07:09:55;;;;;;;9.93;2.75;;;;;;;12.30;93.82;101039.47;5091932;28;20036;-64
2023/10/14 07:12:21;;;;;;;10.00;2.78;;;;;;;12.42;91.57;101044.81;5091868;28;20032;-65
2023/10/14 07:14:47;;;;;;;9.40;2.70;;;;;;;12.54;91.52;101034.28;5092148;28;20073;-62
2023/10/14 07:17:17;;;;;;;8.70;2.40;;;;;;;12.67;90.63;101038.78;5091951;28;20039;-64
2023/10/14 07:19:43;;;;;;;12.75;2.88;;;;;;;12.84;90.46;101038.88;5092177;28;20036;-64
2023/10/14 07:22:09;;;;;;;12.98;3.00;;;;;;;12.99;89.11;101056.63;5092031;28;20496;-64
2023/10/14 07:24:37;;;;;;;13.05;2.80;;;;;;;13.11;89.55;101062.00;5092011;28;20036;-63
2023/10/14 07:27:06;;;;;;;11.93;2.67;;;;;;;13.26;87.80;101063.84;5091738;28;20094;-63
2023/10/14 07:29:32;;;;;;;13.65;2.95;;;;;;;13.43;86.95;101067.41;5093831;28;20052;-64
2023/10/14 07:31:57;;;;;;;15.00;3.28;;;;;;;13.56;86.02;101068.34;5095396;28;20093;-64
2023/10/14 07:34:23;;;;;;;12.43;2.72;;;;;;;13.60;85.08;101071.88;5095485;28;20473;-63
2023/10/14 07:36:50;;;;;;;12.02;2.60;;;;;;;13.76;85.33;101090.50;5095253;28;20106;-64
2023/10/14 07:39:28;;;;;;;11.73;3.17;;;;;;;13.93;84.88;101087.88;5095254;28;20470;-63
2023/10/14 07:41:54;;;;;;;9.30;2.65;;;;;;;14.17;84.48;101097.59;5095088;28;20032;-63
2023/10/14 07:44:22;;;;;;;14.68;2.90;;;;;;;14.31;82.45;101097.63;5095113;28;20162;-63
2023/10/14 07:46:48;;;;;;;12.07;2.70;;;;;;;14.46;80.99;101108.22;5095526;28;20047;-63
2023/10/14 07:49:14;;;;;;;13.00;2.65;;;;;;;14.68;81.26;101103.81;5095069;28;20027;-63
2023/10/14 07:51:39;;;;;;;14.32;3.28;;;;;;;14.88;80.12;101113.53;5095336;28;20024;-65
2023/10/14 07:54:07;;;;;;;9.38;2.58;;;;;;;15.02;79.15;101111.69;5095203;28;20469;-63
2023/10/14 07:56:33;;;;;;;16.30;2.90;;;;;;;15.09;77.33;101113.47;5088977;28;20059;-65
2023/10/14 07:58:58;;;;;;;15.13;3.05;;;;;;;15.34;76.91;101116.91;5073275;28;20028;-63
2023/10/14 08:01:25;;;;;;;10.13;2.78;;;;;;;15.53;77.83;101110.59;5074948;28;20411;-63
2023/10/14 08:03:53;;;;;;;11.27;2.75;;;;;;;15.58;74.66;101117.66;5074855;28;20033;-64
2023/10/14 08:06:19;;;;;;;14.20;3.20;;;;;;;15.62;76.22;101117.63;5074462;28;20470;-63
2023/10/14 08:08:47;;;;;;;13.10;2.75;;;;;;;15.71;75.30;101120.28;5074500;28;20106;-64
2023/10/14 08:11:16;;;;;;;14.45;2.95;;;;;;;15.79;74.61;101125.56;5073066;28;20024;-64
2023/10/14 08:13:42;;;;;;;12.10;2.95;;;;;;;16.06;74.49;101126.28;5074791;28;20078;-63
2023/10/14 08:16:09;;;;;;;10.27;3.00;;;;;;;16.14;73.17;101130.66;5074276;28;20429;-63
2023/10/14 08:18:34;;;;;;;13.63;2.90;;;;;;;16.39;72.56;101133.13;5073050;28;20029;-65
2023/10/14 08:21:00;;;;;;;13.18;2.95;;;;;;;16.62;71.47;101139.16;5074426;28;20036;-64
2023/10/14 08:23:28;;;;;;;12.50;2.75;;;;;;;16.75;70.21;101153.31;5074585;28;20085;-64
2023/10/14 08:25:54;;;;;;;9.57;2.60;;;;;;;17.02;68.92;101157.47;5074281;28;20104;-64
2023/10/14 08:28:24;;;;;;;9.73;2.80;;;;;;;17.26;68.28;101161.66;5074081;28;20557;-64
2023/10/14 08:30:50;;;;;;;14.57;3.33;;;;;;;17.43;67.67;101158.75;5074377;28;20107;-64
2023/10/14 08:33:21;;;;;;;12.52;3.10;;;;;;;17.66;67.71;101155.81;5074251;28;20028;-64
2023/10/14 08:35:48;;;;;;;13.98;3.03;;;;;;;17.70;65.55;101161.09;5074129;28;20047;-64
2023/10/14 08:38:16;;;;;;;9.30;2.80;;;;;;;17.89;68.04;101153.72;5072787;28;20363;-64
2023/10/14 08:40:43;;;;;;;13.88;2.90;;;;;;;17.84;64.38;101166.25;5073954;28;20059;-65
2023/10/14 08:43:10;;;;;;;13.55;2.92;;;;;;;17.98;64.70;101172.28;5074165;28;20036;-65
2023/10/14 08:45:39;;;;;;;12.43;2.83;;;;;;;17.98;63.58;101180.31;5073924;28;20474;-64
2023/10/14 08:48:08;;;;;;;11.65;2.80;;;;;;;17.93;62.83;101194.66;5071808;28;20032;-66
2023/10/14 08:50:35;;;;;;;12.57;2.88;;;;;;;17.85;64.02;101188.53;5072656;28;20028;-65
2023/10/14 08:53:05;;;;;;;12.35;3.08;;;;;;;17.85;63.25;101184.06;5073347;28;20063;-64
2023/10/14 08:55:35;;;;;;;12.80;3.20;;;;;;;17.92;62.70;101182.22;5073818;28;20111;-63
2023/10/14 08:58:04;;;;;;;11.45;3.05;;;;;;;18.08;62.27;101193.56;5071830;28;20471;-65
2023/10/14 09:00:36;;;;;;;11.50;3.05;;;;;;;18.23;62.83;101194.22;5073632;28;20020;-64
2023/10/14 09:03:02;;;;;;;11.40;2.80;;;;;;;18.68;62.53;101198.88;5073621;28;20021;-65
2023/10/14 09:05:30;;;;;;;12.60;3.25;;;;;;;18.89;61.82;101213.72;5073448;28;20031;-65
2023/10/14 09:07:57;;;;;;;15.50;2.83;;;;;;;18.95;59.72;101217.16;5073079;28;20031;-66
2023/10/14 09:10:26;;;;;;;8.75;2.70;;;;;;;18.92;58.87;101214.50;5070904;28;20481;-66
2023/10/14 09:13:06;;;;;;;12.80;3.30;;;;;;;18.98;59.26;101210.88;5073349;28;20090;-64
2023/10/14 09:15:34;;;;;;;11.73;3.13;;;;;;;18.95;57.76;101219.81;5073516;28;20108;-65
2023/10/14 09:18:00;;;;;;;12.23;2.72;;;;;;;19.11;57.80;101217.75;5073548;28;20051;-65
2023/10/14 09:20:35;;;;;;;12.00;3.20;;;;;;;19.35;59.41;101210.16;5073076;28;20107;-65
2023/10/14 09:23:15;;;;;;;11.70;2.92;;;;;;;19.48;58.05;101211.66;5073231;28;20024;-65
2023/10/14 09:25:45;;;;;;;14.60;2.80;;;;;;;19.67;55.90;101220.28;5072792;28;20406;-65
2023/10/14 09:28:16;;;;;;;12.68;2.72;;;;;;;19.54;55.61;101213.38;5072826;28;20067;-64
2023/10/14 09:30:49;;;;;;;7.43;2.78;;;;;;;19.59;54.88;101220.38;5072995;28;20626;-66
2023/10/14 09:33:17;;;;;;;;;;;;;;;19.67;57.23;101214.91;5073357;28;20478;-64
2023/10/14 09:35:48;;;;;;;12.88;3.10;;;;;;;19.51;54.34;101225.91;5072830;28;19914;-64
2023/10/14 09:38:18;;;;;;;11.90;2.95;;;;;;;19.60;57.14;101218.59;5073158;28;20112;-65
2023/10/14 09:41:05;;;;;;;8.93;2.47;;;;;;;20.00;55.65;101216.00;5072979;28;20111;-64
2023/10/14 09:43:32;;;;;;;12.02;2.75;;;;;;;20.43;53.02;101220.34;5072471;28;20359;-63
2023/10/14 09:45:59;;;;;;;11.63;2.72;;;;;;;20.36;52.79;101218.72;5072734;28;20497;-64
2023/10/14 09:48:29;;;;;;;12.43;2.80;;;;;;;20.44;52.79;101224.81;5072703;28;20032;-64
2023/10/14 09:50:56;;;;;;;9.93;2.80;;;;;;;20.44;50.69;101225.69;5072536;28;20032;-64
2023/10/14 09:53:28;;;;;;;11.93;2.85;;;;;;;20.52;51.76;101217.47;5072795;28;20040;-66
2023/10/14 09:56:04;;;;;;;10.50;2.90;;;;;;;20.47;50.28;101227.38;5073074;28;20028;-66
2023/10/14 09:58:34;;;;;;;10.80;3.00;;;;;;;20.44;47.90;101233.72;5072189;28;20036;-64
2023/10/14 10:01:01;;;;;;;9.43;3.05;;;;;;;20.35;48.88;101227.72;5072921;28;20032;-65
2023/10/14 10:03:32;;;;;;;9.35;2.92;;;;;;;20.47;49.85;101228.31;5072668;28;20020;-65
2023/10/14 10:06:26;;;;;;;11.88;2.92;;;;;;;20.61;48.62;101236.03;5072737;28;20027;-63
2023/10/14 10:09:10;;;;;;;10.93;2.95;;;;;;;20.66;48.29;101236.81;5072555;28;20108;-64
2023/10/14 10:11:37;;;;;;;9.98;2.60;;;;;;;21.07;48.15;101237.56;5072642;28;20032;-64
2023/10/14 10:14:06;;;;;;;12.52;2.90;;;;;;;21.45;46.59;101235.66;5072410;28;20021;-64
2023/10/14 10:16:35;;;;;;;9.90;2.83;;;;;;;21.54;45.83;101243.47;5072843;28;20036;-64
2023/10/14 10:19:01;;;;;;;7.78;2.45;;;;;;;21.65;46.75;101243.16;5072269;28;20039;-64
2023/10/14 10:21:34;;;;;;;12.00;2.70;;;;;;;21.59;44.44;101244.22;5072711;28;20347;-64
2023/10/14 10:24:09;;;;;;;10.60;2.85;;;;;;;21.69;46.58;101245.72;5071043;28;20131;-64
2023/10/14 10:27:11;;;;;;;10.05;2.80;;;;;;;21.98;47.26;101238.59;5072429;28;20493;-64
2023/10/14 10:29:45;;;;;;;12.48;2.90;;;;;;;22.11;46.31;101256.13;5072653;28;20047;-63
2023/10/14 10:32:16;;;;;;;9.43;2.67;;;;;;;22.12;42.58;101248.94;5072092;28;20082;-63
2023/10/14 10:35:03;;;;;;;10.90;2.90;;;;;;;21.90;43.82;101257.66;5072278;28;20028;-63
2023/10/14 10:37:29;;;;;;;5.15;2.38;;;;;;;21.41;41.40;101260.84;5072441;28;20074;-64
2023/10/14 10:39:54;;;;;;;8.88;2.55;;;;;;;21.26;41.67;101259.44;5072234;28;20029;-64
2023/10/14 10:42:20;;;;;;;11.52;2.80;;;;;;;21.38;42.98;101263.66;5072090;28;20075;-64
2023/10/14 10:44:45;;;;;;;10.20;2.58;;;;;;;21.60;43.54;101262.13;5072217;28;20514;-65
2023/10/14 10:47:14;;;;;;;9.63;2.70;;;;;;;21.72;41.90;101268.97;5072156;28;20040;-65
2023/10/14 10:49:59;;;;;;;10.18;3.00;;;;;;;21.94;44.74;101270.09;5070993;28;20025;-64
2023/10/14 10:52:25;;;;;;;9.23;2.85;;;;;;;21.97;41.88;101263.75;5071954;28;20028;-64
2023/10/14 10:54:52;;;;;;;9.75;2.72;;;;;;;22.12;42.50;101271.38;5072172;28;20508;-64
2023/10/14 10:57:18;;;;;;;9.90;3.10;;;;;;;22.12;39.58;101278.56;5071389;28;20053;-64
2023/10/14 10:59:44;;;;;;;8.60;2.70;;;;;;;22.30;42.23;101272.63;5071911;28;20097;-64
2023/10/14 11:02:13;;;;;;;9.98;2.78;;;;;;;22.48;41.80;101272.06;5072034;28;20370;-64
2023/10/14 11:04:45;;;;;;;8.38;3.03;;;;;;;22.37;42.71;101268.81;5073120;28;20135;-64
2023/10/14 11:07:12;;;;;;;9.30;2.83;;;;;;;23.03;43.52;101277.47;5076117;28;20055;-63
2023/10/14 11:09:39;;;;;;;13.02;2.70;;;;;;;23.06;44.16;101274.66;5075945;28;20039;-63
2023/10/14 11:12:09;;;;;;;9.52;2.58;;;;;;;23.46;42.10;101279.53;5075717;28;20040;-63
2023/10/14 11:14:35;;;;;;;11.02;2.70;;;;;;;23.98;40.93;101279.47;5075685;28;20036;-63
2023/10/14 11:17:00;;;;;;;9.75;2.60;;;;;;;24.20;39.91;101276.84;5075677;28;20354;-63
2023/10/14 11:19:30;;;;;;;9.57;2.80;;;;;;;24.09;38.65;101282.63;5075648;28;20035;-63
2023/10/14 11:21:58;;;;;;;10.07;2.70;;;;;;;23.78;38.95;101282.94;5075820;28;20115;-64
2023/10/14 11:24:25;;;;;;;8.35;2.60;;;;;;;23.63;40.00;101278.06;5075599;28;20032;-63
2023/10/14 11:26:50;;;;;;;10.25;2.58;;;;;;;23.03;38.95;101288.25;5075727;28;20149;-63
2023/10/14 11:29:16;;;;;;;15.63;2.80;;;;;;;22.74;41.04;101279.31;5075098;28;20565;-63
2023/10/14 11:31:44;;;;;;;12.73;2.85;;;;;;;22.18;40.48;101281.06;5075482;28;20025;-64
2023/10/14 11:34:13;;;;;;;13.05;2.88;;;;;;;21.75;44.72;101290.38;5074091;28;20135;-62
2023/10/14 11:36:44;;;;;;;16.98;2.78;;;;;;;21.45;42.80;101284.03;5075282;28;20043;-64
2023/10/14 11:39:13;;;;;;;9.43;2.92;;;;;;;21.46;42.47;101296.59;5075041;28;20024;-63
2023/10/14 11:41:42;;;;;;;10.20;2.65;;;;;;;20.99;42.83;101291.50;5075323;28;20086;-63
2023/10/14 11:44:07;;;;;;;11.73;2.80;;;;;;;20.77;46.08;101290.28;5074804;28;20024;-63
2023/10/14 11:46:39;;;;;;;7.78;2.53;;;;;;;20.40;43.43;101304.50;5075094;28;20090;-63
2023/10/14 11:49:10;;;;;;;8.45;2.72;;;;;;;20.14;43.24;101302.41;5075159;28;20059;-63
2023/10/14 11:51:47;;;;;;;10.35;2.65;;;;;;;20.07;44.33;101295.41;5075133;28;20032;-63
2023/10/14 11:54:15;;;;;;;10.52;2.78;;;;;;;20.37;44.07;101304.56;5075101;28;20071;-63
2023/10/14 11:56:44;;;;;;;9.20;2.45;;;;;;;20.82;43.22;101304.47;5074566;28;20544;-63
2023/10/14 11:59:12;;;;;;;9.20;2.63;;;;;;;20.70;42.23;101302.94;5074870;28;20032;-63